Time;durP1;ratioP1;P1;durP2;ratioP2;P2;SDS_P1;SDS_P2;PMS_P1;PMS_P2;Temp;Humidity;BMP_temperature;BMP_pressure;BME280_temperature;BME280_humidity;BME280_pressure;Samples;Min_cycle;Max_cycle;Signal;HPM_P1;HPM_P2
2021/11/28 00:00:39;;;;;;;15.70;13.63;;;2.80;99.90;;;;;;5075698;28;20450;-86
2021/11/28 00:03:06;;;;;;;19.40;14.37;;;2.80;99.90;;;;;;5074160;28;20200;-86
2021/11/28 00:05:34;;;;;;;15.32;13.80;;;2.90;99.90;;;;;;5074943;28;20442;-86
2021/11/28 00:08:13;;;;;;;16.10;14.40;;;2.90;99.90;;;;;;5069967;28;20247;-85
2021/11/28 00:13:47;;;;;;;16.17;13.33;;;2.90;99.90;;;;;;5064776;28;20436;-85
2021/11/28 00:16:15;;;;;;;14.23;12.43;;;2.90;99.90;;;;;;5066122;28;20447;-86
2021/11/28 00:18:42;;;;;;;14.40;12.90;;;2.90;99.90;;;;;;5066562;28;20693;-85
2021/11/28 00:21:09;;;;;;;14.63;12.60;;;2.90;99.90;;;;;;5072850;28;20457;-86
2021/11/28 00:23:35;;;;;;;17.02;13.38;;;2.80;99.90;;;;;;5084539;28;20223;-86
2021/11/28 00:26:04;;;;;;;15.20;13.60;;;2.80;99.90;;;;;;5072074;28;20202;-85
2021/11/28 00:28:33;;;;;;;15.63;12.80;;;2.80;99.90;;;;;;5077978;28;20454;-85
2021/11/28 00:31:01;;;;;;;16.13;13.50;;;2.80;99.90;;;;;;5065072;28;20440;-86
2021/11/28 00:33:27;;;;;;;14.40;12.77;;;2.90;99.90;;;;;;5066934;28;20671;-86
2021/11/28 00:35:54;;;;;;;15.73;13.63;;;2.90;99.90;;;;;;5062448;28;20448;-85
2021/11/28 00:38:21;;;;;;;12.97;11.60;;;2.90;99.90;;;;;;5068842;28;20221;-86
2021/11/28 00:40:48;;;;;;;13.23;11.83;;;3.00;99.90;;;;;;5067281;28;20440;-86
2021/11/28 00:43:18;;;;;;;12.07;10.97;;;3.00;99.90;;;;;;5065932;28;20449;-86
2021/11/28 00:45:45;;;;;;;15.77;12.60;;;2.90;99.90;;;;;;5067547;28;20455;-86
2021/11/28 00:48:12;;;;;;;14.60;11.65;;;3.00;99.90;;;;;;5066014;28;20469;-86
2021/11/28 00:50:44;;;;;;;11.47;9.87;;;3.00;99.90;;;;;;5066180;28;20192;-86
2021/11/28 00:53:11;;;;;;;12.37;11.07;;;3.00;99.90;;;;;;5066824;28;20930;-86
2021/11/28 00:55:38;;;;;;;15.43;12.23;;;3.00;99.90;;;;;;5065401;28;20474;-86
2021/11/28 00:58:05;;;;;;;14.67;11.93;;;3.10;99.90;;;;;;5066460;28;20452;-85
2021/11/28 01:00:33;;;;;;;13.70;10.67;;;3.10;99.90;;;;;;5063934;28;20443;-86
2021/11/28 01:03:00;;;;;;;12.73;10.70;;;3.10;99.90;;;;;;5066572;28;20451;-86
2021/11/28 01:05:27;;;;;;;11.70;10.50;;;3.10;99.90;;;;;;5067623;28;20440;-86
2021/11/28 01:07:54;;;;;;;11.40;9.93;;;3.00;99.90;;;;;;5061616;28;20454;-85
2021/11/28 01:10:20;;;;;;;14.00;9.77;;;3.00;99.90;;;;;;5070864;28;20435;-86
2021/11/28 01:12:48;;;;;;;12.73;11.20;;;3.10;99.90;;;;;;5075279;28;20435;-86
2021/11/28 01:15:15;;;;;;;13.45;11.27;;;3.10;99.90;;;;;;5067298;28;20472;-85
2021/11/28 01:17:44;;;;;;;13.73;10.10;;;3.10;99.90;;;;;;5063953;28;20197;-86
2021/11/28 01:20:12;;;;;;;14.50;10.63;;;3.10;99.90;;;;;;5072952;28;20445;-86
2021/11/28 01:22:40;;;;;;;11.17;9.53;;;3.10;99.90;;;;;;5063494;28;20437;-86
2021/11/28 01:25:11;;;;;;;13.40;11.50;;;3.10;99.90;;;;;;5063921;28;20444;-86
2021/11/28 01:27:38;;;;;;;10.43;9.30;;;3.10;99.90;;;;;;5079740;28;20427;-85
2021/11/28 01:30:07;;;;;;;12.50;10.73;;;3.10;99.90;;;;;;5073867;28;20441;-85
2021/11/28 01:32:35;;;;;;;12.57;10.97;;;3.20;99.90;;;;;;5078215;28;20444;-85
2021/11/28 01:35:04;;;;;;;11.27;9.97;;;3.10;99.90;;;;;;5070231;28;20478;-86
2021/11/28 01:37:34;;;;;;;12.00;10.33;;;3.00;99.90;;;;;;5071483;28;20447;-86
2021/11/28 01:40:04;;;;;;;12.77;11.47;;;3.00;99.90;;;;;;5066326;28;20468;-86
2021/11/28 01:42:35;;;;;;;12.07;10.80;;;3.00;99.90;;;;;;5063331;28;20759;-85
2021/11/28 01:45:03;;;;;;;12.00;10.03;;;3.00;99.90;;;;;;5097261;28;20429;-85
2021/11/28 01:47:31;;;;;;;12.93;10.15;;;2.90;99.90;;;;;;5081708;28;20449;-86
2021/11/28 01:49:58;;;;;;;12.25;10.95;;;3.00;99.90;;;;;;5063463;28;20238;-86
2021/11/28 01:52:26;;;;;;;12.17;11.03;;;3.10;99.90;;;;;;5062507;28;20199;-86
2021/11/28 01:54:53;;;;;;;12.53;10.83;;;3.00;99.90;;;;;;5064827;28;20675;-86
2021/11/28 01:57:20;;;;;;;13.53;10.70;;;3.10;99.90;;;;;;5063608;28;20446;-85
2021/11/28 01:59:47;;;;;;;11.80;9.80;;;3.10;99.90;;;;;;5065958;28;20841;-85
2021/11/28 02:02:14;;;;;;;13.23;11.03;;;3.10;99.90;;;;;;5071949;28;20456;-85
2021/11/28 02:04:41;;;;;;;12.45;10.63;;;3.10;99.90;;;;;;5066458;28;20922;-86
2021/11/28 02:07:08;;;;;;;11.00;9.90;;;3.10;99.90;;;;;;5063658;28;20647;-85
2021/11/28 02:09:38;;;;;;;11.07;9.97;;;3.10;99.90;;;;;;5072507;28;20461;-85
2021/11/28 02:12:07;;;;;;;12.57;10.87;;;3.20;99.90;;;;;;5064665;28;20938;-86
2021/11/28 02:14:34;;;;;;;13.97;11.73;;;3.20;99.90;;;;;;5065307;28;21334;-86
2021/11/28 02:17:01;;;;;;;10.87;9.73;;;3.20;99.90;;;;;;5062853;28;20450;-85
2021/11/28 02:19:27;;;;;;;10.88;9.27;;;3.20;99.90;;;;;;5064659;28;20467;-86
2021/11/28 02:21:56;;;;;;;11.83;9.40;;;3.20;99.90;;;;;;5073056;28;20269;-86
2021/11/28 02:24:22;;;;;;;11.20;9.43;;;3.20;99.90;;;;;;5078856;28;20440;-86
2021/11/28 02:26:49;;;;;;;11.93;10.67;;;3.20;99.90;;;;;;5076248;28;20445;-86
2021/11/28 02:29:16;;;;;;;11.60;10.50;;;3.20;99.90;;;;;;5066554;28;20459;-85
2021/11/28 02:31:43;;;;;;;12.00;10.80;;;3.20;99.90;;;;;;5064665;28;20816;-86
2021/11/28 02:34:09;;;;;;;10.67;9.67;;;3.20;99.90;;;;;;5068727;28;20479;-86
2021/11/28 02:36:36;;;;;;;10.50;9.50;;;3.20;99.90;;;;;;5084670;28;20434;-86
2021/11/28 02:39:04;;;;;;;10.50;9.37;;;3.30;99.90;;;;;;5077697;28;20520;-86
2021/11/28 02:41:31;;;;;;;10.77;9.70;;;3.30;99.90;;;;;;5081527;28;20420;-85
2021/11/28 02:43:58;;;;;;;11.40;10.20;;;3.20;99.90;;;;;;5087375;28;20432;-85
2021/11/28 02:46:25;;;;;;;12.33;9.37;;;3.30;99.90;;;;;;5070647;28;20446;-86
2021/11/28 02:48:51;;;;;;;11.30;9.53;;;3.30;99.90;;;;;;5059850;28;21030;-85
2021/11/28 02:51:18;;;;;;;11.60;10.03;;;3.40;99.90;;;;;;5063195;28;20476;-85
2021/11/28 02:53:45;;;;;;;12.80;10.37;;;3.40;99.90;;;;;;5065558;28;20446;-85
2021/11/28 02:56:13;;;;;;;10.47;9.50;;;3.40;99.90;;;;;;5063934;28;20487;-85
2021/11/28 02:58:40;;;;;;;10.87;9.70;;;3.30;99.90;;;;;;5062638;28;20466;-85
2021/11/28 03:01:10;;;;;;;11.53;10.30;;;3.20;99.90;;;;;;5064134;28;20446;-86
2021/11/28 03:03:37;;;;;;;11.60;9.95;;;3.20;99.90;;;;;;5065271;28;20437;-85
2021/11/28 03:06:04;;;;;;;12.07;9.87;;;3.20;99.90;;;;;;5063616;28;20200;-86
2021/11/28 03:08:31;;;;;;;11.30;8.83;;;3.30;99.90;;;;;;5061832;28;20472;-85
2021/11/28 03:10:58;;;;;;;10.97;7.80;;;3.30;99.90;;;;;;5063909;28;20454;-86
2021/11/28 03:13:30;;;;;;;11.80;8.10;;;3.30;99.90;;;;;;5062118;28;20454;-86
2021/11/28 03:15:59;;;;;;;8.20;7.50;;;3.20;99.90;;;;;;5061669;28;20854;-86
2021/11/28 03:18:28;;;;;;;11.40;8.07;;;3.30;99.90;;;;;;5060462;28;20481;-86
2021/11/28 03:20:58;;;;;;;10.30;7.70;;;3.30;99.90;;;;;;5063159;28;20438;-86
2021/11/28 03:23:29;;;;;;;7.43;6.63;;;3.30;99.90;;;;;;5062358;28;20453;-86
2021/11/28 03:26:09;;;;;;;7.80;6.30;;;3.30;99.90;;;;;;5077783;28;20438;-86
2021/11/28 03:28:39;;;;;;;10.77;6.23;;;3.30;99.90;;;;;;5062389;28;20464;-85
2021/11/28 03:31:06;;;;;;;8.47;6.40;;;3.30;99.90;;;;;;5067256;28;20495;-86
2021/11/28 03:33:33;;;;;;;8.40;6.50;;;3.40;99.90;;;;;;5084723;28;20444;-85
2021/11/28 03:36:00;;;;;;;10.73;7.33;;;3.40;99.90;;;;;;5086301;28;20480;-86
2021/11/28 03:38:27;;;;;;;6.33;5.73;;;3.40;99.90;;;;;;5080401;28;20469;-85
2021/11/28 03:44:29;;;;;;;7.77;6.20;;;3.30;99.90;;;;;;5020978;28;20451;-86
2021/11/28 03:46:56;;;;;;;5.97;5.23;;;3.30;99.90;;;;;;5063945;28;20468;-86
2021/11/28 03:49:23;;;;;;;7.70;7.00;;;3.30;99.90;;;;;;5065109;28;20468;-86
2021/11/28 03:51:50;;;;;;;7.83;7.00;;;3.30;99.90;;;;;;5066893;28;20447;-86
2021/11/28 03:54:17;;;;;;;10.63;8.37;;;3.30;99.90;;;;;;5066452;28;20448;-87
2021/11/28 03:56:43;;;;;;;8.33;6.60;;;3.40;99.90;;;;;;5070405;28;20450;-84
2021/11/28 03:59:10;;;;;;;10.37;8.10;;;3.30;99.90;;;;;;5073710;28;20460;-84
2021/11/28 04:01:38;;;;;;;10.37;8.50;;;3.30;99.90;;;;;;5079841;22;21374;-89
2021/11/28 04:04:05;;;;;;;8.80;7.90;;;3.30;99.90;;;;;;5065747;28;20449;-88
2021/11/28 04:06:32;;;;;;;10.90;9.20;;;3.30;99.90;;;;;;5085959;28;20435;-87
2021/11/28 04:08:59;;;;;;;11.63;10.53;;;3.30;99.90;;;;;;5077832;28;20447;-89
2021/11/28 04:11:26;;;;;;;12.13;9.37;;;3.30;99.90;;;;;;5080122;28;20468;-89
2021/11/28 04:13:52;;;;;;;11.87;9.50;;;3.30;99.90;;;;;;5086019;28;20500;-88
2021/11/28 04:16:19;;;;;;;12.73;10.30;;;3.20;99.90;;;;;;5073656;28;20461;-89
2021/11/28 04:18:47;;;;;;;10.60;8.70;;;3.30;99.90;;;;;;5082319;28;20455;-88
2021/11/28 04:21:14;;;;;;;9.87;8.30;;;3.30;99.90;;;;;;5074421;28;20459;-88
2021/11/28 04:23:40;;;;;;;12.13;9.57;;;3.30;99.90;;;;;;5068291;28;20436;-89
2021/11/28 04:26:07;;;;;;;11.17;9.83;;;3.30;99.90;;;;;;5064640;28;20455;-89
2021/11/28 04:28:34;;;;;;;10.60;9.60;;;3.30;99.90;;;;;;5067601;28;20821;-88
2021/11/28 04:31:01;;;;;;;12.53;10.60;;;3.30;99.90;;;;;;5062356;28;20443;-88
2021/11/28 04:33:28;;;;;;;12.70;10.07;;;3.30;99.90;;;;;;5062685;28;20998;-88
2021/11/28 04:35:56;;;;;;;10.27;8.17;;;3.30;99.90;;;;;;5063265;28;20481;-89
2021/11/28 04:38:23;;;;;;;12.03;9.20;;;3.30;99.90;;;;;;5066361;28;20902;-88
2021/11/28 04:40:50;;;;;;;11.43;9.60;;;3.30;99.90;;;;;;5063982;28;20448;-89
2021/11/28 04:43:17;;;;;;;12.20;9.10;;;3.30;99.90;;;;;;5062769;28;20461;-89
2021/11/28 04:45:44;;;;;;;12.67;9.83;;;3.30;99.90;;;;;;5064698;28;20465;-88
2021/11/28 04:48:11;;;;;;;9.73;8.73;;;3.30;99.90;;;;;;5078695;28;20446;-88
2021/11/28 04:50:38;;;;;;;12.23;9.93;;;3.30;99.90;;;;;;5074682;28;20431;-89
2021/11/28 04:53:06;;;;;;;11.90;10.63;;;3.30;99.90;;;;;;5082959;28;20459;-87
2021/11/28 04:55:33;;;;;;;11.33;8.80;;;3.30;99.90;;;;;;5079255;28;20480;-88
2021/11/28 04:58:00;;;;;;;10.63;9.63;;;3.30;99.90;;;;;;5070731;28;20929;-88
2021/11/28 05:00:28;;;;;;;12.43;9.57;;;3.30;99.90;;;;;;5071290;28;20454;-88
2021/11/28 05:02:56;;;;;;;13.70;9.50;;;3.30;99.90;;;;;;5071677;28;20474;-88
2021/11/28 05:05:23;;;;;;;9.80;8.50;;;3.30;99.90;;;;;;5070802;28;20449;-88
2021/11/28 05:07:50;;;;;;;9.27;8.37;;;3.30;99.90;;;;;;5065831;28;20454;-89
2021/11/28 05:10:18;;;;;;;11.23;8.60;;;3.40;99.90;;;;;;5064179;28;20443;-88
2021/11/28 05:12:45;;;;;;;9.33;8.33;;;3.40;99.90;;;;;;5066285;28;20468;-89
2021/11/28 05:15:13;;;;;;;9.63;8.13;;;3.30;99.90;;;;;;5065711;28;20482;-87
2021/11/28 05:17:39;;;;;;;9.43;8.50;;;3.40;99.90;;;;;;5065425;28;20943;-89
2021/11/28 05:20:07;;;;;;;9.50;7.83;;;3.40;99.90;;;;;;5069151;28;20442;-89
2021/11/28 05:22:34;;;;;;;10.80;9.00;;;3.40;99.90;;;;;;5064627;28;20464;-88
2021/11/28 05:25:01;;;;;;;9.00;8.10;;;3.40;99.90;;;;;;5062201;28;20543;-90
2021/11/28 05:27:29;;;;;;;9.27;8.27;;;3.40;99.90;;;;;;5063162;28;20454;-89
2021/11/28 05:29:56;;;;;;;8.67;7.80;;;3.40;99.90;;;;;;5066035;28;20450;-87
2021/11/28 05:32:23;;;;;;;9.23;7.97;;;3.40;99.90;;;;;;5067286;28;20557;-87
2021/11/28 05:34:50;;;;;;;8.87;7.20;;;3.40;99.90;;;;;;5066559;28;20444;-88
2021/11/28 05:37:18;;;;;;;9.87;8.57;;;3.40;99.90;;;;;;5065648;28;20472;-89
2021/11/28 05:39:45;;;;;;;8.90;7.70;;;3.40;99.90;;;;;;5066185;28;20444;-89
2021/11/28 05:42:12;;;;;;;10.23;8.60;;;3.40;99.90;;;;;;5063781;28;20452;-89
2021/11/28 05:44:40;;;;;;;9.33;8.37;;;3.40;99.90;;;;;;5092518;28;20441;-88
2021/11/28 05:47:07;;;;;;;8.97;7.90;;;3.40;99.90;;;;;;5071073;28;20435;-87
2021/11/28 05:49:34;;;;;;;12.40;8.87;;;3.40;99.90;;;;;;5071615;28;20980;-90
2021/11/28 05:52:00;;;;;;;11.50;9.67;;;3.40;99.90;;;;;;5064334;28;20470;-88
2021/11/28 05:54:27;;;;;;;9.20;8.30;;;3.40;99.90;;;;;;5069282;28;20454;-87
2021/11/28 05:56:54;;;;;;;10.30;8.40;;;3.40;99.90;;;;;;5081492;28;20468;-89
2021/11/28 05:59:21;;;;;;;9.70;8.60;;;3.30;99.90;;;;;;5078181;28;20436;-88
2021/11/28 06:01:49;;;;;;;12.60;8.80;;;3.30;99.90;;;;;;5083415;28;20472;-88
2021/11/28 06:04:15;;;;;;;12.47;9.20;;;3.30;99.90;;;;;;5074065;28;20457;-88
2021/11/28 06:06:42;;;;;;;10.87;9.60;;;3.30;99.90;;;;;;5077065;28;20431;-88
2021/11/28 06:09:09;;;;;;;12.83;10.30;;;3.30;99.90;;;;;;5083287;28;20454;-88
2021/11/28 06:11:35;;;;;;;11.97;8.40;;;3.30;99.90;;;;;;5076749;28;20467;-88
2021/11/28 06:14:02;;;;;;;12.50;9.67;;;3.30;99.90;;;;;;5083007;28;20438;-89
2021/11/28 06:16:29;;;;;;;10.50;9.03;;;3.30;99.90;;;;;;5078851;28;20484;-88
2021/11/28 06:18:57;;;;;;;14.33;10.10;;;3.40;99.90;;;;;;5080244;28;20452;-88
2021/11/28 06:21:24;;;;;;;12.17;10.00;;;3.40;99.90;;;;;;5076532;28;20443;-89
2021/11/28 06:23:51;;;;;;;11.30;9.67;;;3.40;99.90;;;;;;5076655;28;20435;-88
2021/11/28 06:26:17;;;;;;;10.67;9.57;;;3.30;99.90;;;;;;5084568;28;20466;-87
2021/11/28 06:28:44;;;;;;;11.50;7.97;;;3.30;99.90;;;;;;5075517;28;20440;-88
2021/11/28 06:31:11;;;;;;;12.40;9.30;;;3.30;99.90;;;;;;5070914;28;20446;-88
2021/11/28 06:33:38;;;;;;;11.07;9.23;;;3.30;99.90;;;;;;5075081;28;20977;-88
2021/11/28 06:36:07;;;;;;;17.10;9.83;;;3.30;99.90;;;;;;5067333;28;20486;-88
2021/11/28 06:38:34;;;;;;;11.07;8.33;;;3.30;99.90;;;;;;5065871;28;20452;-88
2021/11/28 06:41:01;;;;;;;16.63;9.00;;;3.30;99.90;;;;;;5064339;28;20447;-88
2021/11/28 06:43:28;;;;;;;11.20;9.13;;;3.30;99.90;;;;;;5058338;28;20539;-89
2021/11/28 06:45:55;;;;;;;9.50;8.30;;;3.30;99.90;;;;;;5088564;28;20438;-88
2021/11/28 06:48:22;;;;;;;8.70;7.73;;;3.40;99.90;;;;;;5079889;28;20446;-88
2021/11/28 06:50:49;;;;;;;9.87;8.57;;;3.40;99.90;;;;;;5081606;28;20459;-87
2021/11/28 06:53:18;;;;;;;9.33;8.30;;;3.30;99.90;;;;;;5077968;28;20463;-88
2021/11/28 06:55:44;;;;;;;9.60;8.70;;;3.30;99.90;;;;;;5072416;28;20459;-88
2021/11/28 06:58:11;;;;;;;11.93;7.90;;;3.30;99.90;;;;;;5076484;28;20438;-89
2021/11/28 07:00:38;;;;;;;8.30;7.50;;;3.30;99.90;;;;;;5075403;28;20442;-88
2021/11/28 07:03:05;;;;;;;8.70;7.80;;;3.40;99.90;;;;;;5071388;28;20467;-89
2021/11/28 07:05:32;;;;;;;8.13;7.23;;;3.40;99.90;;;;;;5065254;28;20484;-89
2021/11/28 07:07:58;;;;;;;10.40;8.77;;;3.40;99.90;;;;;;5063502;28;20439;-89
2021/11/28 07:10:27;;;;;;;10.50;8.03;;;3.40;99.90;;;;;;5069683;28;20461;-88
2021/11/28 07:12:53;;;;;;;10.23;8.20;;;3.40;99.90;;;;;;5067845;28;20467;-88
2021/11/28 07:15:20;;;;;;;12.23;8.50;;;3.40;99.90;;;;;;5063075;28;20437;-88
2021/11/28 07:17:47;;;;;;;9.83;8.17;;;3.40;99.90;;;;;;5065098;28;20469;-89
2021/11/28 07:20:13;;;;;;;8.40;7.50;;;3.40;99.90;;;;;;5086694;28;20450;-90
2021/11/28 07:22:40;;;;;;;9.53;8.53;;;3.50;99.90;;;;;;5069602;28;20466;-89
2021/11/28 07:25:08;;;;;;;9.93;8.87;;;3.50;99.90;;;;;;5067334;28;20455;-89
2021/11/28 07:27:36;;;;;;;12.97;9.07;;;3.40;99.90;;;;;;5068887;28;20855;-88
2021/11/28 07:30:04;;;;;;;9.17;8.20;;;3.40;99.90;;;;;;5063419;28;20447;-89
2021/11/28 07:32:31;;;;;;;13.23;10.63;;;3.40;99.90;;;;;;5071152;28;20448;-90
2021/11/28 07:34:57;;;;;;;11.13;9.63;;;3.40;99.90;;;;;;5066206;28;20446;-88
2021/11/28 07:37:24;;;;;;;10.33;9.10;;;3.30;99.90;;;;;;5072877;28;20484;-87
2021/11/28 07:39:51;;;;;;;14.77;11.00;;;3.40;99.90;;;;;;5085126;28;20424;-88
2021/11/28 07:42:18;;;;;;;11.00;9.90;;;3.40;99.90;;;;;;5082104;28;20453;-89
2021/11/28 07:44:46;;;;;;;11.20;9.57;;;3.30;99.90;;;;;;5086262;28;20474;-87
2021/11/28 07:47:16;;;;;;;13.33;10.60;;;3.40;99.90;;;;;;5080072;28;20527;-89
2021/11/28 07:49:44;;;;;;;11.77;9.97;;;3.40;99.90;;;;;;5060407;28;20510;-88
2021/11/28 07:52:11;;;;;;;11.63;10.43;;;3.40;99.90;;;;;;5065633;28;20456;-88
2021/11/28 07:54:38;;;;;;;11.73;10.13;;;3.50;99.90;;;;;;5068762;28;20448;-88
2021/11/28 07:57:05;;;;;;;11.63;10.30;;;3.60;99.90;;;;;;5057587;28;20475;-88
2021/11/28 07:59:33;;;;;;;10.13;9.13;;;3.50;99.90;;;;;;5063169;28;20444;-88
2021/11/28 08:02:01;;;;;;;13.10;9.30;;;3.50;99.90;;;;;;5073031;28;20482;-89
2021/11/28 08:04:29;;;;;;;13.63;10.80;;;3.50;99.90;;;;;;5066837;28;20446;-89
2021/11/28 08:06:56;;;;;;;14.90;10.17;;;3.40;99.90;;;;;;5066359;28;20439;-89
2021/11/28 08:09:22;;;;;;;9.13;8.20;;;3.50;99.90;;;;;;5073175;28;20455;-88
2021/11/28 08:11:50;;;;;;;10.83;8.83;;;3.50;99.90;;;;;;5077737;28;20534;-88
2021/11/28 08:14:17;;;;;;;12.73;9.30;;;3.50;99.90;;;;;;5083338;28;20454;-89
2021/11/28 08:16:44;;;;;;;11.17;9.97;;;3.60;99.90;;;;;;5082565;28;20479;-89
2021/11/28 08:19:12;;;;;;;9.80;8.87;;;3.60;99.90;;;;;;5072407;28;20936;-89
2021/11/28 08:21:39;;;;;;;11.50;9.30;;;3.60;99.90;;;;;;5072310;28;21059;-88
2021/11/28 08:24:06;;;;;;;12.70;9.93;;;3.60;99.90;;;;;;5067000;28;20974;-88
2021/11/28 08:26:35;;;;;;;12.07;9.70;;;3.70;99.90;;;;;;5068012;28;20508;-89
2021/11/28 08:29:03;;;;;;;12.00;9.37;;;3.70;99.90;;;;;;5068711;28;20450;-88
2021/11/28 08:31:29;;;;;;;9.93;9.03;;;3.70;99.90;;;;;;5064294;28;20470;-89
2021/11/28 08:33:56;;;;;;;10.93;8.87;;;3.70;99.90;;;;;;5065202;28;20435;-89
2021/11/28 08:36:25;;;;;;;10.93;9.40;;;3.70;99.90;;;;;;5073051;28;20445;-89
2021/11/28 08:38:53;;;;;;;10.03;8.60;;;3.70;99.90;;;;;;5080049;28;20437;-89
2021/11/28 08:41:22;;;;;;;11.10;9.60;;;3.70;99.90;;;;;;5069229;28;20514;-90
2021/11/28 08:43:50;;;;;;;10.20;9.03;;;3.80;99.90;;;;;;5066479;28;20452;-90
2021/11/28 08:46:17;;;;;;;10.40;9.30;;;3.80;99.90;;;;;;5072429;28;20473;-89
2021/11/28 08:48:45;;;;;;;10.50;9.40;;;3.80;99.90;;;;;;5071745;28;20443;-88
2021/11/28 08:51:12;;;;;;;11.17;8.67;;;3.90;99.90;;;;;;5066578;28;20908;-88
2021/11/28 08:53:41;;;;;;;11.80;10.30;;;3.90;99.90;;;;;;5074520;28;20440;-89
2021/11/28 08:56:08;;;;;;;9.90;8.90;;;3.80;99.90;;;;;;5068564;28;20539;-89
2021/11/28 08:58:35;;;;;;;16.20;10.23;;;3.90;99.90;;;;;;5067617;28;20450;-88
2021/11/28 09:01:02;;;;;;;10.90;9.53;;;4.00;99.90;;;;;;5077615;28;20440;-86
2021/11/28 09:03:28;;;;;;;11.47;8.70;;;4.00;99.90;;;;;;5082283;28;20478;-88
2021/11/28 09:05:55;;;;;;;12.13;9.27;;;4.00;99.90;;;;;;5069396;28;20537;-88
2021/11/28 09:08:23;;;;;;;9.17;7.80;;;4.00;99.90;;;;;;5066157;28;20447;-87
2021/11/28 09:10:51;;;;;;;12.67;9.10;;;4.10;99.90;;;;;;5068820;28;20454;-87
2021/11/28 09:13:18;;;;;;;9.40;8.50;;;4.10;99.90;;;;;;5066420;28;20546;-89
2021/11/28 09:15:45;;;;;;;11.63;8.77;;;4.20;99.90;;;;;;5072035;28;20435;-88
2021/11/28 09:18:15;;;;;;;11.17;8.03;;;4.20;99.90;;;;;;5074949;28;20587;-88
2021/11/28 09:20:44;;;;;;;10.93;9.20;;;4.20;99.90;;;;;;5078189;28;20524;-86
2021/11/28 09:25:57;;;;;;;9.53;7.80;;;4.30;99.90;;;;;;5078722;28;20488;-87
2021/11/28 09:28:24;;;;;;;11.13;8.20;;;4.30;99.90;;;;;;5071695;28;20456;-87
2021/11/28 09:30:51;;;;;;;10.73;8.60;;;4.40;99.90;;;;;;5069856;28;20482;-86
2021/11/28 09:33:17;;;;;;;12.13;8.77;;;4.40;99.90;;;;;;5069103;28;20485;-86
2021/11/28 09:35:44;;;;;;;10.23;9.23;;;4.40;99.90;;;;;;5069793;28;20443;-86
2021/11/28 09:38:11;;;;;;;9.83;8.83;;;4.60;99.90;;;;;;5075037;28;20494;-87
2021/11/28 09:40:44;;;;;;;9.23;8.33;;;4.60;99.90;;;;;;5067769;28;20470;-86
2021/11/28 09:43:14;;;;;;;8.67;7.77;;;4.60;99.90;;;;;;5064672;28;20463;-86
2021/11/28 09:45:45;;;;;;;10.43;8.57;;;4.80;99.90;;;;;;5077494;28;20991;-89
2021/11/28 09:48:12;;;;;;;10.17;8.90;;;4.80;99.90;;;;;;5083191;28;20461;-87
2021/11/28 09:50:39;;;;;;;10.70;7.73;;;5.00;99.90;;;;;;5064662;28;20516;-86
2021/11/28 09:53:06;;;;;;;10.80;7.50;;;5.00;99.90;;;;;;5065649;28;20845;-87
2021/11/28 09:55:34;;;;;;;11.57;8.90;;;5.10;99.90;;;;;;5075994;28;20489;-86
2021/11/28 09:58:02;;;;;;;7.87;7.10;;;5.10;99.90;;;;;;5078215;28;20475;-85
2021/11/28 10:00:31;;;;;;;10.67;8.17;;;5.30;99.90;;;;;;5079563;28;20438;-86
2021/11/28 10:02:58;;;;;;;9.70;8.27;;;5.30;99.90;;;;;;5071607;28;20569;-85
2021/11/28 10:05:25;;;;;;;8.37;6.70;;;5.30;99.90;;;;;;5070317;28;20841;-86
2021/11/28 10:07:52;;;;;;;9.30;7.30;;;5.30;99.90;;;;;;5064014;28;20452;-87
2021/11/28 10:10:20;;;;;;;11.03;7.70;;;5.50;99.90;;;;;;5062768;28;20451;-86
2021/11/28 10:12:50;;;;;;;8.33;7.50;;;5.50;99.90;;;;;;5072996;28;20449;-85
2021/11/28 10:15:21;;;;;;;7.70;6.93;;;5.50;99.90;;;;;;5074707;28;20432;-86
2021/11/28 10:17:49;;;;;;;10.57;8.20;;;5.60;99.90;;;;;;5064981;28;20908;-86
2021/11/28 10:20:19;;;;;;;9.40;8.50;;;5.50;99.90;;;;;;5067021;28;20432;-86
2021/11/28 10:22:47;;;;;;;8.10;7.30;;;5.50;99.90;;;;;;5063402;28;20483;-87
2021/11/28 10:25:18;;;;;;;7.60;6.90;;;5.40;99.90;;;;;;5066367;28;20436;-86
2021/11/28 10:27:48;;;;;;;7.30;6.57;;;5.40;99.90;;;;;;5085270;28;20433;-84
2021/11/28 10:30:18;;;;;;;8.60;7.43;;;5.30;99.90;;;;;;5088994;28;20420;-85
2021/11/28 10:32:49;;;;;;;8.30;7.50;;;5.30;99.90;;;;;;5068676;28;20464;-86
2021/11/28 10:35:19;;;;;;;8.77;7.10;;;5.30;99.90;;;;;;5063591;28;20456;-87
2021/11/28 10:37:50;;;;;;;7.83;7.03;;;5.30;99.90;;;;;;5064966;28;20475;-87
2021/11/28 10:40:22;;;;;;;9.10;7.40;;;5.40;99.90;;;;;;5066928;28;20442;-88
2021/11/28 10:42:52;;;;;;;8.93;7.90;;;5.40;99.90;;;;;;5064520;28;20463;-85
2021/11/28 10:45:21;;;;;;;7.67;6.97;;;5.50;99.90;;;;;;5063283;28;20448;-86
2021/11/28 10:47:50;;;;;;;8.00;7.27;;;5.50;99.90;;;;;;5059378;28;20447;-87
2021/11/28 10:50:26;;;;;;;8.40;6.37;;;5.50;99.90;;;;;;5061320;28;20440;-86
2021/11/28 10:53:03;;;;;;;6.37;5.73;;;5.40;99.90;;;;;;5063505;28;21017;-86
2021/11/28 10:55:34;;;;;;;9.63;7.23;;;5.40;99.90;;;;;;5062830;28;20425;-86
2021/11/28 10:58:07;;;;;;;7.77;7.07;;;5.40;99.90;;;;;;5069136;28;20460;-85
2021/11/28 11:00:35;;;;;;;9.23;6.93;;;5.40;99.90;;;;;;5065226;28;20811;-86
2021/11/28 11:03:16;;;;;;;8.03;7.20;;;5.40;99.90;;;;;;5077584;28;20452;-87
2021/11/28 11:05:45;;;;;;;8.67;7.13;;;5.40;99.90;;;;;;5071751;28;20434;-86
2021/11/28 11:08:15;;;;;;;7.13;6.43;;;5.40;99.90;;;;;;5069170;28;20437;-86
2021/11/28 11:10:43;;;;;;;8.23;7.43;;;5.50;99.90;;;;;;5077770;28;20447;-86
2021/11/28 11:13:13;;;;;;;8.70;7.80;;;5.50;99.90;;;;;;5062124;28;20482;-87
2021/11/28 11:15:44;;;;;;;9.00;7.27;;;5.60;99.90;;;;;;5060666;28;20852;-86
2021/11/28 11:18:14;;;;;;;8.97;8.17;;;5.60;99.90;;;;;;5062847;28;21070;-85
2021/11/28 11:20:48;;;;;;;8.10;7.40;;;5.70;99.90;;;;;;5063311;28;20454;-85
2021/11/28 11:23:35;;;;;;;8.07;7.10;;;5.80;99.90;;;;;;5045836;28;20460;-86
2021/11/28 11:26:19;;;;;;;7.80;7.10;;;5.80;99.90;;;;;;5059784;28;20468;-86
2021/11/28 11:29:00;;;;;;;10.03;7.80;;;5.80;99.90;;;;;;5063265;28;20451;-85
2021/11/28 11:31:27;;;;;;;7.93;7.13;;;5.80;99.90;;;;;;5060551;28;20471;-87
2021/11/28 11:33:54;;;;;;;8.17;7.47;;;5.70;99.90;;;;;;5062070;28;20428;-86
2021/11/28 11:36:23;;;;;;;9.60;7.67;;;5.70;99.90;;;;;;5059564;28;20461;-87
2021/11/28 11:38:50;;;;;;;7.20;6.57;;;5.70;99.90;;;;;;5063021;28;20484;-88
2021/11/28 11:41:18;;;;;;;9.43;8.43;;;5.70;99.90;;;;;;5061694;28;20527;-85
2021/11/28 11:43:46;;;;;;;7.67;6.27;;;5.70;99.90;;;;;;5069366;28;20451;-85
2021/11/28 11:46:15;;;;;;;9.60;6.97;;;5.70;99.90;;;;;;5062247;28;20428;-86
2021/11/28 11:48:42;;;;;;;8.07;7.27;;;5.70;99.90;;;;;;5063699;28;20448;-87
2021/11/28 11:51:10;;;;;;;10.43;7.90;;;5.70;99.90;;;;;;5059375;28;20441;-87
2021/11/28 11:53:38;;;;;;;8.40;7.53;;;5.80;99.90;;;;;;5068434;28;20430;-85
2021/11/28 11:56:10;;;;;;;11.07;8.87;;;5.80;99.90;;;;;;5074013;28;20420;-84
2021/11/28 11:58:45;;;;;;;8.93;7.83;;;5.70;99.90;;;;;;5071552;28;20459;-85
2021/11/28 12:01:17;;;;;;;10.07;8.40;;;5.90;99.90;;;;;;5072676;28;20435;-86
2021/11/28 12:03:47;;;;;;;10.43;8.63;;;6.00;99.90;;;;;;5061733;28;20447;-86
2021/11/28 12:06:14;;;;;;;9.00;8.20;;;6.10;99.90;;;;;;5064593;28;20451;-86
2021/11/28 12:08:51;;;;;;;11.43;7.67;;;6.20;99.90;;;;;;5066617;28;20527;-86
2021/11/28 12:11:22;;;;;;;9.33;7.77;;;6.30;99.90;;;;;;5080391;28;20452;-87
2021/11/28 12:14:00;;;;;;;8.73;7.83;;;6.40;99.90;;;;;;5061307;28;20480;-87
2021/11/28 12:16:34;;;;;;;8.90;7.67;;;6.40;99.90;;;;;;5058483;28;20435;-88
2021/11/28 12:19:01;;;;;;;9.43;8.43;;;6.50;99.90;;;;;;5058121;28;20913;-88
2021/11/28 12:21:43;;;;;;;8.20;7.40;;;6.50;99.90;;;;;;5056633;28;20475;-87
2021/11/28 12:24:13;;;;;;;9.80;7.70;;;6.50;99.90;;;;;;5062154;28;20474;-88
2021/11/28 12:26:45;;;;;;;9.27;8.13;;;6.60;99.90;;;;;;5059029;28;20515;-87
2021/11/28 12:29:24;;;;;;;8.53;7.53;;;6.70;99.90;;;;;;5061724;28;20455;-87
2021/11/28 12:31:54;;;;;;;9.60;7.10;;;6.70;99.90;;;;;;5057926;28;20455;-85
2021/11/28 12:34:22;;;;;;;9.27;6.50;;;6.70;99.90;;;;;;5061206;28;20474;-87
2021/11/28 12:36:51;;;;;;;6.73;6.13;;;6.70;99.90;;;;;;5065102;28;20878;-87
2021/11/28 12:39:39;;;;;;;9.07;5.60;;;6.60;99.90;;;;;;5064908;28;20471;-87
2021/11/28 12:42:08;;;;;;;4.70;4.10;;;6.60;99.90;;;;;;5062511;28;20558;-86
2021/11/28 12:44:36;;;;;;;6.57;4.73;;;6.40;99.90;;;;;;5064347;28;20479;-85
2021/11/28 12:47:20;;;;;;;5.30;4.40;;;6.40;99.90;;;;;;5076342;28;20447;-87
2021/11/28 12:49:50;;;;;;;4.73;4.20;;;6.30;99.90;;;;;;5079077;28;20440;-85
2021/11/28 12:52:42;;;;;;;5.83;5.10;;;6.40;99.90;;;;;;5080762;28;20478;-88
2021/11/28 12:55:21;;;;;;;5.20;4.40;;;6.30;99.90;;;;;;5063284;28;20451;-88
2021/11/28 12:58:13;;;;;;;5.57;4.03;;;6.30;99.90;;;;;;5068837;28;20538;-87
2021/11/28 13:00:52;;;;;;;6.57;4.00;;;6.30;99.90;;;;;;5064180;28;20837;-85
2021/11/28 13:03:26;;;;;;;5.17;4.67;;;6.30;99.90;;;;;;5063648;28;20471;-88